Time;durP1;ratioP1;P1;durP2;ratioP2;P2;SDS_P1;SDS_P2;PMS_P1;PMS_P2;Temp;Humidity;BMP_temperature;BMP_pressure;BME280_temperature;BME280_humidity;BME280_pressure;Samples;Min_cycle;Max_cycle;Signal;HPM_P1;HPM_P2
2022/04/04 00:00:44;0.00;0.00;0.62;0.00;0.00;0.62;1.70;0.83;;;23.20;20.90;;;;;;2249968;61;20786;-53
2022/04/04 00:03:28;0.00;0.00;0.62;0.00;0.00;0.62;1.60;0.87;;;23.20;20.90;;;;;;2247349;61;20407;-55
2022/04/04 00:06:13;0.00;0.00;0.62;0.00;0.00;0.62;2.13;1.10;;;23.20;21.00;;;;;;2247223;61;20343;-55
2022/04/04 00:08:57;0.00;0.00;0.62;0.00;0.00;0.62;1.30;0.80;;;23.20;21.00;;;;;;2246982;61;20415;-56
2022/04/04 00:11:42;0.00;0.00;0.62;0.00;0.00;0.62;1.70;0.87;;;23.20;21.00;;;;;;2247286;61;20369;-56
2022/04/04 00:14:28;0.00;0.00;0.62;0.00;0.00;0.62;1.40;0.80;;;23.20;21.00;;;;;;2247368;61;20398;-58
2022/04/04 00:17:12;0.00;0.00;0.62;0.00;0.00;0.62;1.70;1.20;;;23.20;20.90;;;;;;2247061;61;20375;-58
2022/04/04 00:19:57;0.00;0.00;0.62;0.00;0.00;0.62;1.40;0.97;;;23.20;21.00;;;;;;2247217;61;20372;-53
2022/04/04 00:22:42;0.00;0.00;0.62;0.00;0.00;0.62;1.40;0.80;;;23.20;21.00;;;;;;2247568;61;20367;-56
2022/04/04 00:25:27;0.00;0.00;0.62;0.00;0.00;0.62;1.80;1.10;;;23.20;21.00;;;;;;2247056;61;20910;-54
2022/04/04 00:28:13;0.00;0.00;0.62;0.00;0.00;0.62;1.40;0.80;;;23.20;21.00;;;;;;2247009;61;20492;-54
2022/04/04 00:30:59;0.00;0.00;0.62;0.00;0.00;0.62;1.60;0.83;;;23.20;20.80;;;;;;2249275;61;20371;-53
2022/04/04 00:33:44;0.00;0.00;0.62;0.00;0.00;0.62;1.60;1.30;;;23.20;20.80;;;;;;2249458;61;20935;-57
2022/04/04 00:36:28;0.00;0.00;0.62;0.00;0.00;0.62;1.70;1.20;;;23.20;20.70;;;;;;2247468;61;20439;-54
2022/04/04 00:39:16;0.00;0.00;0.62;0.00;0.00;0.62;1.73;1.00;;;23.20;20.60;;;;;;2246945;61;20507;-55
2022/04/04 00:42:00;0.00;0.00;0.62;0.00;0.00;0.62;2.20;1.50;;;23.10;20.40;;;;;;2247316;61;20367;-60
2022/04/04 00:44:45;0.00;0.00;0.62;0.00;0.00;0.62;1.70;1.13;;;23.10;20.30;;;;;;2247860;61;20399;-59
2022/04/04 00:47:32;0.00;0.00;0.62;0.00;0.00;0.62;2.07;1.43;;;23.00;20.10;;;;;;2247012;61;20980;-56
2022/04/04 00:50:16;0.00;0.00;0.62;0.00;0.00;0.62;2.80;1.87;;;22.90;19.90;;;;;;2247219;61;20414;-59
2022/04/04 00:53:02;0.00;0.00;0.62;0.00;0.00;0.62;2.70;1.60;;;22.90;19.90;;;;;;2249443;61;20460;-60
2022/04/04 00:55:47;0.00;0.00;0.62;0.00;0.00;0.62;1.73;1.10;;;22.80;19.70;;;;;;2247385;61;20428;-57
2022/04/04 00:58:32;0.00;0.00;0.62;0.00;0.00;0.62;3.17;1.60;;;22.80;19.70;;;;;;2247483;61;20431;-57
2022/04/04 01:01:20;0.00;0.00;0.62;0.00;0.00;0.62;2.00;1.30;;;22.70;19.60;;;;;;2249159;61;20899;-57
2022/04/04 01:04:08;0.00;0.00;0.62;0.00;0.00;0.62;1.70;1.10;;;22.70;19.60;;;;;;2247255;61;20472;-54
2022/04/04 01:06:53;0.00;0.00;0.62;0.00;0.00;0.62;1.67;1.20;;;22.60;19.60;;;;;;2247386;61;20455;-56
2022/04/04 01:09:37;0.00;0.00;0.62;0.00;0.00;0.62;2.27;1.13;;;22.50;19.50;;;;;;2246890;61;20379;-53
2022/04/04 01:12:22;0.00;0.00;0.62;0.00;0.00;0.62;1.63;1.10;;;22.50;19.50;;;;;;2248061;61;20411;-55
2022/04/04 01:15:07;0.00;0.00;0.62;0.00;0.00;0.62;2.07;1.20;;;22.40;19.40;;;;;;2248064;61;20470;-60
2022/04/04 01:17:52;0.00;0.00;0.62;0.00;0.00;0.62;2.40;1.10;;;22.40;19.50;;;;;;2248053;61;20782;-54
2022/04/04 01:20:38;0.00;0.00;0.62;0.00;0.00;0.62;1.67;1.13;;;22.30;19.40;;;;;;2248246;61;20370;-56
2022/04/04 01:23:25;0.00;0.00;0.62;0.00;0.00;0.62;1.57;1.10;;;22.30;19.40;;;;;;2247721;61;20939;-58
2022/04/04 01:26:13;0.00;0.00;0.62;0.00;0.00;0.62;2.10;1.43;;;22.20;19.40;;;;;;2248059;61;20811;-58
2022/04/04 01:28:57;0.00;0.00;0.62;0.00;0.00;0.62;1.80;1.40;;;22.20;19.40;;;;;;2247900;61;20427;-57
2022/04/04 01:31:42;0.00;0.00;0.62;0.00;0.00;0.62;2.73;1.23;;;22.10;19.30;;;;;;2249977;61;20395;-55
2022/04/04 01:34:29;0.00;0.00;0.62;0.00;0.00;0.62;2.50;1.50;;;22.10;19.30;;;;;;2247720;61;20929;-53
2022/04/04 01:37:13;0.00;0.00;0.62;0.00;0.00;0.62;2.87;1.13;;;22.00;19.30;;;;;;2248146;61;20364;-53
2022/04/04 01:39:58;0.00;0.00;0.62;0.00;0.00;0.62;2.33;1.70;;;22.00;19.30;;;;;;2248072;61;20354;-52
2022/04/04 01:42:48;0.00;0.00;0.62;0.00;0.00;0.62;2.17;1.33;;;22.00;19.20;;;;;;2250468;61;20376;-56
2022/04/04 01:48:37;0.00;0.00;0.62;0.00;0.00;0.62;1.70;1.40;;;21.80;19.10;;;;;;2247754;61;20375;-50
2022/04/04 01:51:23;0.00;0.00;0.62;0.00;0.00;0.62;1.80;1.33;;;21.80;19.20;;;;;;2248013;61;20376;-55
2022/04/04 01:54:07;0.00;0.00;0.62;0.00;0.00;0.62;1.80;1.30;;;21.70;19.10;;;;;;2247690;61;20918;-56
2022/04/04 01:56:52;0.00;0.00;0.62;0.00;0.00;0.62;2.23;1.40;;;21.70;19.20;;;;;;2247845;61;20829;-57
2022/04/04 01:59:38;0.00;0.00;0.62;0.00;0.00;0.62;2.10;1.33;;;21.60;19.10;;;;;;2247589;61;20941;-58
2022/04/04 02:02:23;0.00;0.00;0.62;0.00;0.00;0.62;2.20;1.43;;;21.50;19.10;;;;;;2248022;61;20464;-55
2022/04/04 02:05:09;0.00;0.00;0.62;0.00;0.00;0.62;2.30;1.33;;;21.50;19.10;;;;;;2250193;61;20419;-53
2022/04/04 02:07:53;0.00;0.00;0.62;0.00;0.00;0.62;1.80;0.97;;;21.40;19.00;;;;;;2247559;61;20363;-56
2022/04/04 02:10:39;0.00;0.00;0.62;0.00;0.00;0.62;1.70;1.10;;;21.40;19.10;;;;;;2247666;61;20402;-59
2022/04/04 02:13:25;0.00;0.00;0.62;0.00;0.00;0.62;4.37;1.60;;;21.30;19.10;;;;;;2250495;61;20457;-53
2022/04/04 02:16:11;0.00;0.00;0.62;0.00;0.00;0.62;3.40;1.43;;;21.30;19.10;;;;;;2247355;61;20998;-55
2022/04/04 02:18:56;0.00;0.00;0.62;0.00;0.00;0.62;2.17;1.50;;;21.20;19.10;;;;;;2247527;61;20372;-51
2022/04/04 02:21:40;0.00;0.00;0.62;0.00;0.00;0.62;2.03;1.37;;;21.20;19.20;;;;;;2247858;61;20406;-51
2022/04/04 02:24:25;0.00;0.00;0.62;0.00;0.00;0.62;1.77;1.20;;;21.10;19.10;;;;;;2247843;61;20384;-54
2022/04/04 02:27:09;0.00;0.00;0.62;0.00;0.00;0.62;2.17;1.20;;;21.10;19.20;;;;;;2247775;61;20419;-56
2022/04/04 02:29:55;0.00;0.00;0.62;0.00;0.00;0.62;3.23;1.60;;;21.10;19.20;;;;;;2247402;61;20372;-53
2022/04/04 02:32:41;0.00;0.00;0.62;0.00;0.00;0.62;2.80;1.90;;;21.00;19.20;;;;;;2247825;61;20764;-56
2022/04/04 02:35:26;0.00;0.00;0.62;0.00;0.00;0.62;6.03;1.90;;;21.00;19.20;;;;;;2247895;61;20395;-53
2022/04/04 02:38:11;0.00;0.00;0.62;0.00;0.00;0.62;1.70;1.37;;;20.90;19.10;;;;;;2247195;61;20407;-53
2022/04/04 02:40:58;0.00;0.00;0.62;0.00;0.00;0.62;1.90;1.40;;;20.90;19.10;;;;;;2247858;61;20367;-51
2022/04/04 02:43:42;0.00;0.00;0.62;0.00;0.00;0.62;2.67;1.47;;;20.80;19.10;;;;;;2248263;61;20374;-54
2022/04/04 02:46:27;0.00;0.00;0.62;0.00;0.00;0.62;2.30;1.80;;;20.80;19.20;;;;;;2247613;61;20415;-57
2022/04/04 02:49:13;0.00;0.00;0.62;0.00;0.00;0.62;2.67;1.60;;;20.70;19.20;;;;;;2247470;61;20419;-56
2022/04/04 02:51:58;0.00;0.00;0.62;0.00;0.00;0.62;1.77;1.63;;;20.70;19.20;;;;;;2247312;61;20898;-58
2022/04/04 02:54:43;0.00;0.00;0.62;0.00;0.00;0.62;2.13;1.70;;;20.70;19.30;;;;;;2247516;61;20923;-57
2022/04/04 02:57:28;0.00;0.00;0.62;0.00;0.00;0.62;2.50;1.80;;;20.60;19.20;;;;;;2247961;61;20494;-59
2022/04/04 03:00:14;0.00;0.00;0.62;0.00;0.00;0.62;2.00;1.50;;;20.50;19.10;;;;;;2247243;61;20849;-55
2022/04/04 03:02:59;0.00;0.00;0.62;0.00;0.00;0.62;2.20;1.40;;;20.50;19.10;;;;;;2247618;61;20367;-54
2022/04/04 03:05:46;0.00;0.00;0.62;0.00;0.00;0.62;2.47;1.80;;;20.50;19.10;;;;;;2247865;61;20379;-57
2022/04/04 03:08:31;0.00;0.00;0.62;0.00;0.00;0.62;2.20;1.70;;;20.40;19.00;;;;;;2247026;61;20483;-56
2022/04/04 03:11:16;0.00;0.00;0.62;0.00;0.00;0.62;3.33;1.87;;;20.40;19.00;;;;;;2247616;61;20409;-57
2022/04/04 03:14:01;0.00;0.00;0.62;0.00;0.00;0.62;2.80;1.73;;;20.30;19.00;;;;;;2247194;61;20934;-54
2022/04/04 03:16:45;0.00;0.00;0.62;0.00;0.00;0.62;5.60;1.60;;;20.30;19.00;;;;;;2247470;61;20438;-53
2022/04/04 03:19:30;0.00;0.00;0.62;0.00;0.00;0.62;2.80;2.10;;;20.30;19.00;;;;;;2249987;61;20955;-59
2022/04/04 03:22:16;0.00;0.00;0.62;0.00;0.00;0.62;2.97;2.30;;;20.20;18.90;;;;;;2249519;61;20902;-55
2022/04/04 03:25:00;0.00;0.00;0.62;0.00;0.00;0.62;2.97;2.10;;;20.20;18.90;;;;;;2247377;61;20406;-53
2022/04/04 03:27:47;0.00;0.00;0.62;0.00;0.00;0.62;2.50;2.30;;;20.10;18.80;;;;;;2247708;61;20423;-53
2022/04/04 03:30:32;0.00;0.00;0.62;0.00;0.00;0.62;3.00;1.97;;;20.10;18.90;;;;;;2247036;61;20531;-54
2022/04/04 03:33:16;0.00;0.00;0.62;0.00;0.00;0.62;3.50;2.53;;;20.00;18.90;;;;;;2247532;61;20452;-52
2022/04/04 03:36:01;0.00;0.00;0.62;0.00;0.00;0.62;3.10;2.43;;;20.00;18.90;;;;;;2247001;61;20427;-57
2022/04/04 03:38:48;0.00;0.00;0.62;0.00;0.00;0.62;2.60;2.00;;;20.00;19.00;;;;;;2248598;55;20470;-51
2022/04/04 03:41:32;0.00;0.00;0.62;0.00;0.00;0.62;3.03;2.73;;;19.90;18.90;;;;;;2246586;61;20418;-52
2022/04/04 03:44:17;0.00;0.00;0.62;0.00;0.00;0.62;3.23;2.30;;;19.90;19.00;;;;;;2247147;61;20411;-48
2022/04/04 03:47:02;0.00;0.00;0.62;0.00;0.00;0.62;4.57;2.30;;;19.90;19.00;;;;;;2247363;61;20364;-46
2022/04/04 03:49:47;0.00;0.00;0.62;0.00;0.00;0.62;2.27;2.00;;;19.80;19.00;;;;;;2247219;61;20363;-51
2022/04/04 03:52:31;0.00;0.00;0.62;0.00;0.00;0.62;2.93;2.63;;;19.80;18.90;;;;;;2247195;61;20617;-51
2022/04/04 03:55:18;0.00;0.00;0.62;0.00;0.00;0.62;3.73;2.23;;;19.80;19.00;;;;;;2246867;61;20805;-51
2022/04/04 03:58:05;0.00;0.00;0.62;0.00;0.00;0.62;3.03;2.73;;;19.70;19.00;;;;;;2247022;61;20407;-51
2022/04/04 04:00:49;0.00;0.00;0.62;0.00;0.00;0.62;2.17;1.97;;;19.70;19.00;;;;;;2247599;61;20364;-48
2022/04/04 04:03:35;0.00;0.00;0.62;0.00;0.00;0.62;5.83;3.20;;;19.60;19.00;;;;;;2247506;61;20403;-46
2022/04/04 04:06:20;0.00;0.00;0.62;0.00;0.00;0.62;4.30;2.70;;;19.60;19.00;;;;;;2246991;61;20403;-48
2022/04/04 04:09:04;0.00;0.00;0.62;0.00;0.00;0.62;4.10;2.60;;;19.60;19.10;;;;;;2246504;61;20383;-48
2022/04/04 04:11:50;0.00;0.00;0.62;0.00;0.00;0.62;3.70;2.83;;;19.50;19.10;;;;;;2247702;61;20479;-48
2022/04/04 04:14:35;0.00;0.00;0.62;0.00;0.00;0.62;2.20;2.00;;;19.50;19.10;;;;;;2246699;61;20992;-49
2022/04/04 04:17:21;0.00;0.00;0.62;0.00;0.00;0.62;2.90;2.50;;;19.50;19.10;;;;;;2247457;61;20435;-48
2022/04/04 04:20:20;0.00;0.00;0.62;0.00;0.00;0.62;2.20;2.00;;;19.50;19.10;;;;;;2247574;61;20449;-48
2022/04/04 04:23:08;0.00;0.00;0.62;0.00;0.00;0.62;2.80;2.50;;;19.40;19.00;;;;;;2247020;61;20962;-48
2022/04/04 04:25:52;0.00;0.00;0.62;0.00;0.00;0.62;3.43;2.60;;;19.40;19.60;;;;;;2247483;61;20414;-48
2022/04/04 04:28:39;0.00;0.00;0.62;0.00;0.00;0.62;3.00;2.57;;;19.40;19.10;;;;;;2246979;61;20423;-48
2022/04/04 04:31:24;0.00;0.00;0.62;0.00;0.00;0.62;3.60;2.60;;;19.40;19.10;;;;;;2247152;61;20368;-52
2022/04/04 04:34:08;0.00;0.00;0.62;0.00;0.00;0.62;3.07;2.77;;;19.30;19.00;;;;;;2247656;61;20430;-50
2022/04/04 04:36:53;0.00;0.00;0.62;0.00;0.00;0.62;2.90;2.50;;;19.30;19.10;;;;;;2247031;61;20423;-48
2022/04/04 04:39:38;0.00;0.00;0.62;0.00;0.00;0.62;2.87;2.57;;;19.30;19.10;;;;;;2247051;61;20427;-52
2022/04/04 04:42:22;0.00;0.00;0.62;0.00;0.00;0.62;5.23;3.60;;;19.20;19.10;;;;;;2247871;61;20454;-52
2022/04/04 04:45:09;0.00;0.00;0.62;0.00;0.00;0.62;3.67;3.30;;;19.20;19.10;;;;;;2248254;61;20363;-50
2022/04/04 04:47:54;0.00;0.00;0.62;0.00;0.00;0.62;3.37;3.07;;;19.20;19.00;;;;;;2248392;61;20522;-53
2022/04/04 04:50:38;0.00;0.00;0.62;0.00;0.00;0.62;4.00;3.27;;;19.10;19.00;;;;;;2248363;61;20806;-56
2022/04/04 04:53:23;0.00;0.00;0.62;0.00;0.00;0.62;5.00;3.30;;;19.10;19.00;;;;;;2245091;61;20766;-52
2022/04/04 04:56:08;0.00;0.00;0.62;0.00;0.00;0.62;3.87;3.47;;;19.00;19.00;;;;;;2249597;61;21003;-56
2022/04/04 04:58:52;0.00;0.00;0.62;0.00;0.00;0.62;4.20;2.90;;;19.00;19.10;;;;;;2249079;61;20383;-56
2022/04/04 05:01:39;0.00;0.00;0.62;0.00;0.00;0.62;3.30;3.00;;;19.00;19.10;;;;;;2248747;61;20363;-52
2022/04/04 05:04:23;0.00;0.00;0.62;0.00;0.00;0.62;3.77;3.13;;;18.90;19.10;;;;;;2248695;61;20414;-55
2022/04/04 05:07:08;0.00;0.00;0.62;0.00;0.00;0.62;3.17;2.90;;;18.90;19.10;;;;;;2248800;61;20371;-54
2022/04/04 05:09:53;0.00;0.00;0.62;0.00;0.00;0.62;3.50;3.20;;;18.90;19.20;;;;;;2248744;61;20363;-51
2022/04/04 05:12:38;0.00;0.00;0.62;0.00;0.00;0.62;3.50;3.20;;;18.80;19.10;;;;;;2247987;61;20371;-54
2022/04/04 05:15:23;0.00;0.00;0.62;0.00;0.00;0.62;5.03;4.30;;;18.80;19.20;;;;;;2247775;61;20376;-54
2022/04/04 05:18:09;0.00;0.00;0.62;0.00;0.00;0.62;4.23;3.47;;;18.80;19.00;;;;;;2249017;61;20450;-56
2022/04/04 05:20:54;0.00;0.00;0.62;0.00;0.00;0.62;4.87;3.47;;;18.70;18.90;;;;;;2248501;61;20406;-55
2022/04/04 05:23:39;0.00;0.00;0.62;0.00;0.00;0.62;3.20;2.90;;;18.70;19.00;;;;;;2247568;61;20415;-54
2022/04/04 05:26:24;0.00;0.00;0.62;0.00;0.00;0.62;4.30;3.20;;;18.60;19.10;;;;;;2248331;61;20383;-55
2022/04/04 05:29:09;0.00;0.00;0.62;0.00;0.00;0.62;3.80;3.10;;;18.60;19.10;;;;;;2247627;61;20442;-55
2022/04/04 05:31:55;0.00;0.00;0.62;0.00;0.00;0.62;3.37;3.00;;;18.50;19.10;;;;;;2248087;61;20844;-54
2022/04/04 05:34:41;0.00;0.00;0.62;0.00;0.00;0.62;4.07;3.13;;;18.50;19.10;;;;;;2248393;61;20407;-54
2022/04/04 05:37:25;0.00;0.00;0.62;0.00;0.00;0.62;3.07;2.77;;;18.50;19.20;;;;;;2248193;61;20359;-55
2022/04/04 05:40:11;0.00;0.00;0.62;0.00;0.00;0.62;4.87;3.50;;;18.50;19.20;;;;;;2248150;61;20883;-56
2022/04/04 05:42:56;0.00;0.00;0.62;0.00;0.00;0.62;3.80;3.43;;;18.40;19.20;;;;;;2248007;61;20903;-58
2022/04/04 05:45:40;0.00;0.00;0.62;0.00;0.00;0.62;3.47;3.00;;;18.40;19.00;;;;;;2248479;61;20427;-57
2022/04/04 05:48:30;0.00;0.00;0.62;0.00;0.00;0.62;4.30;3.90;;;18.40;19.00;;;;;;2247565;61;20943;-58
2022/04/04 05:51:17;0.00;0.00;0.62;0.00;0.00;0.62;4.13;3.73;;;18.30;18.90;;;;;;2247598;61;20371;-55
2022/04/04 05:54:02;0.00;0.00;0.62;0.00;0.00;0.62;5.00;3.73;;;18.30;18.60;;;;;;2247940;61;20367;-57
2022/04/04 05:56:47;0.00;0.00;0.62;0.00;0.00;0.62;4.83;3.40;;;18.20;18.50;;;;;;2248082;61;20383;-57
2022/04/04 05:59:33;0.00;0.00;0.62;0.00;0.00;0.62;4.50;4.10;;;18.10;18.60;;;;;;2245718;61;20935;-58
2022/04/04 06:02:19;0.00;0.00;0.62;0.00;0.00;0.62;4.70;4.17;;;18.10;18.70;;;;;;2248361;61;20411;-57
2022/04/04 06:05:06;0.00;0.00;0.62;0.00;0.00;0.62;5.83;4.70;;;18.00;18.60;;;;;;2248281;61;20364;-55
2022/04/04 06:07:52;0.00;0.00;0.62;0.00;0.00;0.62;6.00;4.90;;;18.00;18.50;;;;;;2247534;61;20442;-58
2022/04/04 06:10:37;0.00;0.00;0.62;0.00;0.00;0.62;7.73;4.20;;;17.90;18.40;;;;;;2248069;61;20367;-59
2022/04/04 06:13:22;0.00;0.00;0.62;0.00;0.00;0.62;4.70;4.30;;;17.80;18.30;;;;;;2248166;61;20411;-54
2022/04/04 06:16:08;0.00;0.00;0.62;0.00;0.00;0.62;4.40;3.70;;;17.70;18.30;;;;;;2247967;61;20379;-59
2022/04/04 06:18:53;0.00;0.00;0.62;0.00;0.00;0.62;3.43;2.63;;;17.70;18.60;;;;;;2248844;61;20835;-59
2022/04/04 06:21:38;0.00;0.00;0.62;0.00;0.00;0.62;4.40;2.40;;;17.60;18.80;;;;;;2245834;61;20756;-58
2022/04/04 06:24:23;0.00;0.00;0.62;0.00;0.00;0.62;2.33;2.07;;;17.60;18.90;;;;;;2248758;61;20503;-57
2022/04/04 06:27:09;0.00;0.00;0.62;0.00;0.00;0.62;3.40;1.97;;;17.70;19.10;;;;;;2248545;61;20426;-59
2022/04/04 06:29:53;0.00;0.00;0.62;0.00;0.00;0.62;3.60;2.10;;;17.70;19.10;;;;;;2250068;61;20411;-59
2022/04/04 06:32:41;0.00;0.00;0.62;0.00;0.00;0.62;3.23;1.90;;;17.80;19.20;;;;;;2250744;61;20475;-60
2022/04/04 06:35:26;0.00;0.00;0.62;0.00;0.00;0.62;3.30;2.10;;;17.90;19.30;;;;;;2248494;61;20438;-58
2022/04/04 06:38:12;0.00;0.00;0.62;0.00;0.00;0.62;3.10;1.90;;;17.90;19.30;;;;;;2246864;61;20400;-56
2022/04/04 06:40:58;0.00;0.00;0.62;0.00;0.00;0.62;3.10;2.03;;;18.00;19.30;;;;;;2246262;61;20423;-59
2022/04/04 06:43:42;0.00;0.00;0.62;0.00;0.00;0.62;3.30;2.10;;;18.00;19.40;;;;;;2247780;61;20471;-60
2022/04/04 06:46:27;0.00;0.00;0.62;0.00;0.00;0.62;3.73;1.97;;;18.10;19.40;;;;;;2248293;61;20427;-57
2022/04/04 06:49:11;0.00;0.00;0.62;0.00;0.00;0.62;6.03;2.27;;;18.20;19.40;;;;;;2244438;61;20387;-55
2022/04/04 06:51:56;0.00;0.00;0.62;0.00;0.00;0.62;2.43;1.90;;;18.20;19.40;;;;;;2247825;61;20772;-54
2022/04/04 06:54:41;0.00;0.00;0.62;0.00;0.00;0.62;3.80;2.53;;;18.30;19.40;;;;;;2241840;61;20384;-53
2022/04/04 06:57:27;0.00;0.00;0.62;0.00;0.00;0.62;2.63;1.87;;;18.30;19.40;;;;;;2247515;61;20391;-51
2022/04/04 07:00:15;0.00;0.00;0.62;0.00;0.00;0.62;2.67;1.70;;;18.40;19.40;;;;;;2251660;61;20384;-54
2022/04/04 07:03:01;0.00;0.00;0.62;0.00;0.00;0.62;5.03;2.33;;;18.50;19.40;;;;;;2249517;61;20395;-55
2022/04/04 07:05:46;0.00;0.00;0.62;0.00;0.00;0.62;2.77;1.73;;;18.50;19.40;;;;;;2241475;61;20407;-56
2022/04/04 07:08:31;0.00;0.00;0.62;0.00;0.00;0.62;1.97;1.73;;;18.60;19.40;;;;;;2247456;61;20526;-56
2022/04/04 07:11:16;0.00;0.00;0.62;0.00;0.00;0.62;3.90;2.40;;;18.60;19.40;;;;;;2244330;61;20363;-57
2022/04/04 07:14:02;0.00;0.00;0.62;0.00;0.00;0.62;3.37;1.70;;;18.70;19.50;;;;;;2247388;61;20443;-51
2022/04/04 07:16:51;0.00;0.00;0.62;0.00;0.00;0.62;3.83;2.00;;;18.70;19.40;;;;;;2247501;61;20419;-51
2022/04/04 07:19:35;0.00;0.00;0.62;0.00;0.00;0.62;3.20;1.67;;;18.70;19.40;;;;;;2244257;61;20367;-57
2022/04/04 07:22:20;0.00;0.00;0.62;0.00;0.00;0.62;2.30;1.37;;;18.80;19.40;;;;;;2247317;61;20391;-51
2022/04/04 07:25:09;0.00;0.00;0.62;0.00;0.00;0.62;3.20;1.90;;;18.80;19.40;;;;;;2247360;61;20898;-54
2022/04/04 07:27:54;0.00;0.00;0.62;0.00;0.00;0.62;1.90;1.47;;;18.90;19.40;;;;;;2247283;61;20386;-56
2022/04/04 07:30:41;0.00;0.00;0.62;0.00;0.00;0.62;1.97;1.47;;;18.90;19.40;;;;;;2248442;61;20391;-58
2022/04/04 07:33:26;0.00;0.00;0.62;0.00;0.00;0.62;3.10;1.80;;;18.90;19.40;;;;;;2247663;61;20422;-55
2022/04/04 07:36:11;0.00;0.00;0.62;0.00;0.00;0.62;2.37;1.37;;;19.00;19.40;;;;;;2247912;61;20568;-54
2022/04/04 07:38:57;0.00;0.00;0.62;0.00;0.00;0.62;2.83;1.97;;;19.00;19.40;;;;;;2247201;61;20391;-54
2022/04/04 07:41:42;0.00;0.00;0.62;0.00;0.00;0.62;2.50;1.27;;;19.10;19.40;;;;;;2247023;61;20414;-53
2022/04/04 07:44:26;0.00;0.00;0.62;0.00;0.00;0.62;2.77;1.30;;;19.10;19.40;;;;;;2246872;61;20382;-52
2022/04/04 07:47:12;0.00;0.00;0.62;0.00;0.00;0.62;3.27;1.67;;;19.20;19.50;;;;;;2246628;61;20923;-52
2022/04/04 07:49:56;0.00;0.00;0.62;0.00;0.00;0.62;1.90;1.50;;;19.20;19.40;;;;;;2246963;61;20456;-55
2022/04/04 07:52:41;0.00;0.00;0.62;0.00;0.00;0.62;3.30;1.30;;;19.20;19.40;;;;;;2247544;61;20367;-55
2022/04/04 07:55:26;0.00;0.00;0.62;0.00;0.00;0.62;2.20;1.27;;;19.30;19.40;;;;;;2248967;61;20799;-55
2022/04/04 07:58:10;0.00;0.00;0.62;0.00;0.00;0.62;1.90;1.30;;;19.30;19.40;;;;;;2248610;61;20430;-55
2022/04/04 08:00:55;0.00;0.00;0.62;0.00;0.00;0.62;2.30;1.43;;;19.30;19.30;;;;;;2249147;61;20375;-55
2022/04/04 08:03:41;0.00;0.00;0.62;0.00;0.00;0.62;2.17;1.70;;;19.30;19.30;;;;;;2249295;61;20451;-57
2022/04/04 08:06:26;0.00;0.00;0.62;0.00;0.00;0.62;2.23;1.50;;;19.40;19.30;;;;;;2248766;61;20415;-58
2022/04/04 08:09:11;0.00;0.00;0.62;0.00;0.00;0.62;2.40;1.47;;;19.40;19.30;;;;;;2248624;61;20531;-57
2022/04/04 08:11:56;0.00;0.00;0.62;0.00;0.00;0.62;1.90;1.27;;;19.40;19.20;;;;;;2247953;61;20368;-50
2022/04/04 08:14:41;0.00;0.00;0.62;0.00;0.00;0.62;2.90;1.30;;;19.40;19.20;;;;;;2247595;61;20453;-58
2022/04/04 08:17:25;0.00;0.00;0.62;0.00;0.00;0.62;1.70;1.20;;;19.50;19.20;;;;;;2247240;61;20919;-56
2022/04/04 08:20:13;0.00;0.00;0.62;0.00;0.00;0.62;1.90;1.20;;;19.50;19.20;;;;;;2244394;61;20395;-55
2022/04/04 08:22:57;0.00;0.00;0.62;0.00;0.00;0.62;1.90;1.30;;;19.50;19.10;;;;;;2252103;61;20524;-55
2022/04/04 08:25:42;0.00;0.00;0.62;0.00;0.00;0.62;2.07;1.17;;;19.50;19.10;;;;;;2252537;61;20402;-51
2022/04/04 08:28:29;0.00;0.00;0.62;0.00;0.00;0.62;2.20;1.57;;;19.60;19.10;;;;;;2249701;61;20783;-57
2022/04/04 08:31:15;0.00;0.00;0.62;0.00;0.00;0.62;2.93;1.30;;;19.60;19.10;;;;;;2252835;61;20458;-55
2022/04/04 08:34:00;0.00;0.00;0.62;0.00;0.00;0.62;1.63;1.17;;;19.60;19.10;;;;;;2253159;61;20474;-49
2022/04/04 08:36:46;0.00;0.00;0.62;0.00;0.00;0.62;1.57;1.20;;;19.60;19.00;;;;;;2249842;61;20445;-54
2022/04/04 08:39:32;0.00;0.00;0.62;0.00;0.00;0.62;2.40;1.50;;;19.60;19.00;;;;;;2249749;61;20449;-55
2022/04/04 08:42:20;0.00;0.00;0.62;0.00;0.00;0.62;3.13;1.40;;;19.60;19.00;;;;;;2252185;61;20414;-54
2022/04/04 08:45:08;0.00;0.00;0.62;0.00;0.00;0.62;2.00;1.30;;;19.70;19.00;;;;;;2252213;61;20359;-51
2022/04/04 08:47:54;0.00;0.00;0.62;0.00;0.00;0.62;1.83;1.23;;;19.70;19.00;;;;;;2251952;61;20433;-53
2022/04/04 08:50:40;0.00;0.00;0.62;0.00;0.00;0.62;1.77;1.03;;;19.70;18.90;;;;;;2251471;61;20378;-50
2022/04/04 08:53:28;0.00;0.00;0.62;0.00;0.00;0.62;2.33;1.20;;;19.70;18.90;;;;;;2251441;61;20454;-51
2022/04/04 08:56:13;0.00;0.00;0.62;0.00;0.00;0.62;2.00;1.40;;;19.70;18.90;;;;;;2251445;61;20378;-51
2022/04/04 08:58:58;0.00;0.00;0.62;0.00;0.00;0.62;1.63;1.13;;;19.80;18.90;;;;;;2252068;61;20390;-49
2022/04/04 09:01:42;0.00;0.00;0.62;0.00;0.00;0.62;1.40;0.93;;;19.80;18.90;;;;;;2251703;61;20374;-55
2022/04/04 09:04:27;0.00;0.00;0.62;0.00;0.00;0.62;2.17;1.00;;;19.80;18.90;;;;;;2253349;61;20362;-58
2022/04/04 09:07:13;0.00;0.00;0.62;0.00;0.00;0.62;1.60;1.10;;;19.80;18.80;;;;;;2252714;61;20369;-50
2022/04/04 09:10:00;0.00;0.00;0.62;0.00;0.00;0.62;2.00;1.10;;;19.80;18.80;;;;;;2251863;61;20366;-51
2022/04/04 09:12:48;0.00;0.00;0.62;0.00;0.00;0.62;1.77;1.10;;;19.80;18.80;;;;;;2251628;61;20474;-51
2022/04/04 09:15:57;0.00;0.00;0.62;0.00;0.00;0.62;2.00;1.40;;;19.80;19.30;;;;;;2251814;61;20832;-55
2022/04/04 09:18:49;0.00;0.00;0.62;0.00;0.00;0.62;3.20;1.30;;;19.80;18.80;;;;;;2251747;61;20379;-51
2022/04/04 09:21:35;0.00;0.00;0.62;0.00;0.00;0.62;2.50;1.23;;;19.80;18.80;;;;;;2251907;61;20362;-56
2022/04/04 09:24:20;0.00;0.00;0.62;0.00;0.00;0.62;1.83;1.47;;;19.80;18.80;;;;;;2251786;61;20977;-54
2022/04/04 09:27:12;0.00;0.00;0.62;0.00;0.00;0.62;2.30;1.33;;;19.90;18.80;;;;;;2251791;61;20774;-53
2022/04/04 09:29:58;0.00;0.00;0.62;0.00;0.00;0.62;1.90;1.20;;;19.90;18.80;;;;;;2248292;61;20398;-54
2022/04/04 09:32:46;0.00;0.00;0.62;0.00;0.00;0.62;1.40;0.90;;;19.90;18.90;;;;;;2251563;61;20414;-52
2022/04/04 09:35:32;0.00;0.00;0.62;0.00;0.00;0.62;1.77;1.13;;;19.90;18.90;;;;;;2251449;61;20374;-57
2022/04/04 09:38:17;0.00;0.00;0.62;0.00;0.00;0.62;1.90;1.20;;;19.90;18.80;;;;;;2251348;61;20398;-51
2022/04/04 09:41:05;0.00;0.00;0.62;0.00;0.00;0.62;1.50;1.00;;;19.90;18.80;;;;;;2251434;61;20793;-56
2022/04/04 09:43:53;0.00;0.00;0.62;0.00;0.00;0.62;1.93;1.23;;;19.90;18.90;;;;;;2251869;61;20921;-53
2022/04/04 09:46:40;0.00;0.00;0.62;0.00;0.00;0.62;3.07;1.03;;;19.90;18.90;;;;;;2253377;61;20367;-54
2022/04/04 09:49:25;0.00;0.00;0.62;0.00;0.00;0.62;1.87;1.20;;;19.90;18.90;;;;;;2251430;61;20418;-49
2022/04/04 09:52:09;0.00;0.00;0.62;0.00;0.00;0.62;1.80;1.00;;;19.90;18.90;;;;;;2251773;61;20370;-50
2022/04/04 09:54:54;0.00;0.00;0.62;0.00;0.00;0.62;1.67;1.07;;;19.90;18.90;;;;;;2251933;61;20459;-49
2022/04/04 09:57:39;0.00;0.00;0.62;0.00;0.00;0.62;1.43;0.90;;;19.90;18.90;;;;;;2251544;61;20379;-54
2022/04/04 10:00:26;0.00;0.00;0.62;0.00;0.00;0.62;1.83;0.93;;;20.00;18.90;;;;;;2251603;61;20411;-57
2022/04/04 10:03:14;0.00;0.00;0.62;0.00;0.00;0.62;2.17;1.10;;;20.00;18.90;;;;;;2252026;61;20371;-57
2022/04/04 10:06:04;0.00;0.00;0.62;0.00;0.00;0.62;1.60;1.10;;;20.00;18.90;;;;;;2254172;61;20406;-58
2022/04/04 10:08:54;0.00;0.00;0.62;0.00;0.00;0.62;1.80;1.20;;;20.00;19.00;;;;;;2253554;61;20970;-52
2022/04/04 10:11:39;0.00;0.00;0.62;0.00;0.00;0.62;1.70;1.20;;;20.00;18.90;;;;;;2253251;61;20362;-57
2022/04/04 10:14:25;0.00;0.00;0.62;0.00;0.00;0.62;1.63;1.07;;;20.00;18.90;;;;;;2254339;61;20354;-59
2022/04/04 10:17:11;0.00;0.00;0.62;0.00;0.00;0.62;1.60;1.00;;;20.00;18.90;;;;;;2253442;61;20394;-54
2022/04/04 10:19:57;0.00;0.00;0.62;0.00;0.00;0.62;1.93;1.03;;;20.00;18.90;;;;;;2251138;61;20452;-52
2022/04/04 10:22:43;0.00;0.00;0.62;0.00;0.00;0.62;1.77;1.43;;;20.00;18.90;;;;;;2252492;61;20359;-58
2022/04/04 10:25:31;0.00;0.00;0.62;0.00;0.00;0.62;1.70;1.20;;;20.00;18.90;;;;;;2251188;61;20366;-55
2022/04/04 10:28:26;0.00;0.00;0.62;0.00;0.00;0.62;1.60;1.20;;;20.00;18.90;;;;;;2251012;61;20832;-54
2022/04/04 10:31:15;0.00;0.00;0.62;0.00;0.00;0.62;1.63;0.90;;;20.00;18.90;;;;;;2251589;61;20757;-56
2022/04/04 10:34:12;0.00;0.00;0.62;0.00;0.00;0.62;1.70;1.10;;;20.00;18.90;;;;;;2251288;61;20934;-50
2022/04/04 10:37:00;0.00;0.00;0.62;0.00;0.00;0.62;1.70;1.10;;;20.00;18.90;;;;;;2248766;61;20430;-53
2022/04/04 10:39:48;0.00;0.00;0.62;0.00;0.00;0.62;1.80;1.20;;;20.10;19.00;;;;;;2248269;61;20414;-55
2022/04/04 10:42:40;0.00;0.00;0.62;0.00;0.00;0.62;2.37;1.17;;;20.00;18.90;;;;;;2251272;61;20359;-49
2022/04/04 10:45:28;0.00;0.00;0.62;0.00;0.00;0.62;1.60;1.20;;;20.10;19.00;;;;;;2251674;61;20429;-49
2022/04/04 10:48:18;0.00;0.00;0.62;0.00;0.00;0.62;1.80;1.20;;;20.00;18.90;;;;;;2254378;61;20790;-59
2022/04/04 10:51:12;0.00;0.00;0.62;0.00;0.00;0.62;4.30;1.50;;;20.00;18.90;;;;;;2252137;61;20447;-55
2022/04/04 10:54:00;0.00;0.00;0.62;0.00;0.00;0.62;2.73;1.33;;;20.10;19.00;;;;;;2251488;61;20399;-55
2022/04/04 10:56:46;0.00;0.00;0.62;0.00;0.00;0.62;2.00;1.20;;;20.00;18.90;;;;;;2253444;61;20382;-54